Sialkot, Pakistan

3:23 AM PKT on February 06, 2016 (GMT +0500)
Sialkot Airport | | Change Station
CLOSE
Current Station
Airport
Location: Sialkot Airport,
Elevation: 810 ft
Nearby Weather Stations

Elev 810 ft 32.54 °N, 74.36 °E | Updated 23 minutes ago

Smoke
Smoke
50 °F
Feels Like 50 °F
N
5
Wind Variable Wind from NE

Today
High -- | Low -- °F
--% Chance of Precip.
Yesterday
High -- | Low -- °F
Precip. -- in
Pressure 29.86 in
Visibility 2.2 miles
Clouds Few 4000 ft
Dew Point 43 °F
Humidity 76%
Rainfall 0.00 in
Snow Depth Not available.
6:53 AM 5:38 PM
Waning Crescent, 9% visible
METAR OPST 052200Z 05004KT 3500 FU FEW040 10/06 Q1011 BECMG 3000 BR RH74
Pressure 29.86 in
Visibility 2.2 miles
Clouds Few 4000 ft
Dew Point 43 °F
Humidity 76%
Rainfall 0.00 in
Snow Depth Not available.
6:53 AM 5:38 PM
Waning Crescent, 9% visible
METAR OPST 052200Z 05004KT 3500 FU FEW040 10/06 Q1011 BECMG 3000 BR RH74

10-Day Weather Forecast

No radar image for this location.
×

Almanac

Astronomy

Feb. 06, 2016 Rise Set
Actual Time
Civil Twilight
Nautical Twilight
Astronomical Twilight
Moon
Length of Visible Light
Length of Day
Tomorrow will be .
, % of the Moon is Illuminated

Today's Extremes

Country Highs Country Lows

Community

WunderPhotos

Upload Photos

1,890,878 photos uploaded!

WunderBlog® & News

Nearby

Air Quality

  Air Quality AQ Index Pollutant
Not available.

Snow Depth

Station Depth Elevation

Earthquake Activity

City Distance Mag. Time & Date
Minimum magnitude displayed is 2.5.

Coastal Water Temperatures

Place Temperature

Stations

Nearby Weather Stations

Station Location Temp. Windchill Dew Point Humidity Wind Precip. Elev Updated Type